Ariel, WA

10:11 PM PDT on October 25, 2014 (GMT -0700)
West Yale Valley | Change Station
CLOSE
Current Station
Personal Weather Station
Location: Ariel, WA
Elevation: 455 ft
Nearby Weather Stations

Elev 455 ft 46.00 °N, 122.40 °W | Updated 1 minute ago

Overcast
Overcast
50.8 °F
Feels Like 50.8 °F
N
1.0
Wind Variable Wind from WSW
Gusts 7.0 mph

Today
High -- | Low -- °F
--% Chance of Precip.
Yesterday
High -- | Low -- °F
Precip. -- in
7:40 AM 6:06 PM
Waxing Crescent, 6% visible
Pressure 29.84 in
Visibility 10.0 miles
Clouds Few 3400 ft
Scattered Clouds 4200 ft
Mostly Cloudy 4800 ft
Dew Point 44 °F
Humidity 76%
Rainfall 0.70 in
Snow Depth 0 in , 0 in
UV 0 out of 12
Pollen .40 out of 12
Air Quality Not available.
Flu Activity Sporadic
METAR KKLS 260455Z AUTO 00000KT 10SM FEW034 SCT042 BKN048 12/08 A2984 RMK AO1 P0003

More Conditions Fewer Conditions

Pressure 29.84 in
Visibility 10.0 miles
Clouds Few 3400 ft
Scattered Clouds 4200 ft
Mostly Cloudy 4800 ft
Dew Point 44 °F
Humidity 76%
Rainfall 0.70 in
Snow Depth 0 in , 0 in
UV 0 out of 12
Pollen .40 out of 12
Air Quality Not available.
Flu Activity Sporadic
METAR KKLS 260455Z AUTO 00000KT 10SM FEW034 SCT042 BKN048 12/08 A2984 RMK AO1 P0003

More Conditions Fewer Conditions

10-Day Weather Forecast

Almanac

Astronomy

Oct. 25, 2014 Rise Set
Actual Time 7:40 AM PDT 6:06 PM PDT
Civil Twilight 7:09 AM PDT 6:37 PM PDT
Nautical Twilight 6:34 AM PDT 7:11 PM PDT
Astronomical Twilight 6:00 AM PDT 7:46 PM PDT
Moon 9:29 AM PDT (10/25) 7:28 PM PDT (10/25)
Length of Visible Light 11h 27m
Length of Day
10h 25m
Tomorrow will be 3m 0s shorter.
Waxing Crescent, 6% of the Moon is Illuminated
Oct 26
Waxing Crescent
Oct 30
First Quarter
Nov 6
Full
Nov 14
Last Quarter
Nov 22
New

Yesterday's Extremes

State Highs State Lows

Community

WunderPhotos

Upload Photos

1,765,111 photos uploaded!

Nearby

Snow Depth

Station Depth Elevation
June Lake 0 in 3340 ft
Swift Creek 0 in 3770 ft
Spirit Lake 0 in 3120 ft
Spencer Meadow 0 in 3400 ft
Lone Pine 0 in 3800 ft

Earthquake Activity

City Distance Mag. Time & Date
No recent earthquake activity has been reported nearby.
Minimum magnitude displayed is 2.5.

Coastal Water Temperatures

Place Temperature
No Stations Reporting

Nearby Weather Stations